Map

Track Data

SID SEASON NUMBER BASIN SUBBASIN NAME ISO_TIME NATURE LAT LON WMO_WIND WMO_PRES WMO_AGENCY TRACK_TYPE DIST2LAND LANDFALL IFLAG USA_AGENCY USA_ATCF_ID USA_LAT USA_LON USA_RECORD USA_STATUS USA_WIND USA_PRES USA_SSHS USA_R34_NE USA_R34_SE USA_R34_SW USA_R34_NW USA_R50_NE USA_R50_SE USA_R50_SW USA_R50_NW USA_R64_NE USA_R64_SE USA_R64_SW USA_R64_NW USA_POCI USA_ROCI USA_RMW USA_EYE TOKYO_LAT TOKYO_LON TOKYO_GRADE TOKYO_WIND TOKYO_PRES TOKYO_R50_DIR TOKYO_R50_LONG TOKYO_R50_SHORT TOKYO_R30_DIR TOKYO_R30_LONG TOKYO_R30_SHORT TOKYO_LAND CMA_LAT CMA_LON CMA_CAT CMA_WIND CMA_PRES HKO_LAT HKO_LON HKO_CAT HKO_WIND HKO_PRES NEWDELHI_LAT NEWDELHI_LON NEWDELHI_GRADE NEWDELHI_WIND NEWDELHI_PRES NEWDELHI_CI NEWDELHI_DP NEWDELHI_POCI REUNION_LAT REUNION_LON REUNION_TYPE REUNION_WIND REUNION_PRES REUNION_TNUM REUNION_CI REUNION_RMW REUNION_R34_NE REUNION_R34_SE REUNION_R34_SW REUNION_R34_NW REUNION_R50_NE REUNION_R50_SE REUNION_R50_SW REUNION_R50_NW REUNION_R64_NE REUNION_R64_SE REUNION_R64_SW REUNION_R64_NW BOM_LAT BOM_LON BOM_TYPE BOM_WIND BOM_PRES BOM_TNUM BOM_CI BOM_RMW BOM_R34_NE BOM_R34_SE BOM_R34_SW BOM_R34_NW BOM_R50_NE BOM_R50_SE BOM_R50_SW BOM_R50_NW BOM_R64_NE BOM_R64_SE BOM_R64_SW BOM_R64_NW BOM_ROCI BOM_POCI BOM_EYE BOM_POS_METHOD BOM_PRES_METHOD NADI_LAT NADI_LON NADI_CAT NADI_WIND NADI_PRES WELLINGTON_LAT WELLINGTON_LON WELLINGTON_WIND WELLINGTON_PRES DS824_LAT DS824_LON DS824_STAGE DS824_WIND DS824_PRES TD9636_LAT TD9636_LON TD9636_STAGE TD9636_WIND TD9636_PRES TD9635_LAT TD9635_LON TD9635_WIND TD9635_PRES TD9635_ROCI NEUMANN_LAT NEUMANN_LON NEUMANN_CLASS NEUMANN_WIND NEUMANN_PRES MLC_LAT MLC_LON MLC_CLASS MLC_WIND MLC_PRES USA_GUST BOM_GUST BOM_GUST_PER REUNION_GUST REUNION_GUST_PER USA_SEAHGT USA_SEARAD_NE USA_SEARAD_SE USA_SEARAD_SW USA_SEARAD_NW STORM_SPEED STORM_DIR
1870101S07468 1870 9 SI WA NOT_NAMED 1870-04-10 18:00:00 NR -6.80000 107.500 spur-merge 0 0 __________O___ -1 -6.80000 107.500 7 9 237
1870101S07468 1870 9 SI WA NOT_NAMED 1870-04-10 21:00:00 NR -7.04559 107.113 spur-merge 0 0 __________P___ -1 -7.04559 107.113 7 9 238
1870101S07468 1870 9 SI WA NOT_NAMED 1870-04-11 00:00:00 NR -7.28281 106.730 spur-merge 0 0 __________P___ -1 -7.28281 106.730 7 9 239
1870101S07468 1870 9 SI WA NOT_NAMED 1870-04-11 03:00:00 NR -7.50363 106.358 spur-merge 11 11 __________P___ -1 -7.50363 106.358 7 8 240
1870101S07468 1870 9 SI WA NOT_NAMED 1870-04-11 06:00:00 NR -7.70000 106.000 spur-merge 55 55 __________O___ -1 -7.70000 106.000 7 8 242
1870101S07468 1870 9 SI WA NOT_NAMED 1870-04-11 09:00:00 NR -7.86736 105.660 spur-merge 95 95 __________P___ -1 -7.86736 105.660 7 7 244
1870101S07468 1870 9 SI WA NOT_NAMED 1870-04-11 12:00:00 NR -8.01482 105.335 spur-merge 134 134 __________P___ -1 -8.01482 105.335 7 7 246
1870101S07468 1870 9 SI WA NOT_NAMED 1870-04-11 15:00:00 NR -8.15487 105.017 spur-merge 158 158 __________P___ -1 -8.15487 105.017 7 7 246
1870101S07468 1870 9 SI WA NOT_NAMED 1870-04-11 18:00:00 NR -8.30000 104.700 spur-merge 176 176 __________O___ -1 -8.30000 104.700 7 7 244
1870101S07468 1870 9 SI WA NOT_NAMED 1870-04-11 21:00:00 NR -8.45959 104.379 spur-merge 209 209 __________P___ -1 -8.45959 104.379 7 7 243
1870101S07468 1870 9 SI WA NOT_NAMED 1870-04-12 00:00:00 NR -8.62736 104.057 spur-merge 235 235 __________P___ -1 -8.62736 104.057 7 7 242
1870101S07468 1870 9 SI WA NOT_NAMED 1870-04-12 03:00:00 NR -8.80645 103.732 spur-merge 278 278 __________P___ -1 -8.80645 103.732 7 8 240
1870101S07468 1870 9 SI WA NOT_NAMED 1870-04-12 06:00:00 NR -9.00000 103.400 spur-merge 316 316 __________O___ -1 -9.00000 103.400 7 8 239
1870101S07468 1870 9 SI WA NOT_NAMED 1870-04-12 09:00:00 NR -9.20658 103.045 spur-merge 362 362 __________P___ -1 -9.20658 103.045 7 8 239
1870101S07468 1870 9 SI WA NOT_NAMED 1870-04-12 12:00:00 NR -9.42753 102.685 spur-merge 400 400 __________P___ -1 -9.42753 102.685 7 8 237
1870101S07468 1870 9 SI WA NOT_NAMED 1870-04-12 15:00:00 NR -9.65971 102.332 spur-merge 455 455 __________P___ -1 -9.65971 102.332 7 8 235
1870101S07468 1870 9 SI WA NOT_NAMED 1870-04-12 18:00:00 NR -9.90000 102.000 spur-merge 494 494 __________O___ -1 -9.90000 102.000 7 8 232
1870101S07468 1870 9 SI WA NOT_NAMED 1870-04-12 21:00:00 NR -10.1508 101.687 spur-merge 541 541 __________P___ -1 -10.1508 101.687 7 8 229
1870101S07468 1870 9 SI WA NOT_NAMED 1870-04-13 00:00:00 NR -10.4074 101.398 spur-merge 580 580 __________P___ -1 -10.4074 101.398 7 7 227
1870101S07468 1870 9 SI WA NOT_NAMED 1870-04-13 03:00:00 NR -10.6603 101.134 spur-merge 627 627 __________P___ -1 -10.6603 101.134 7 7 225
1870101S07468 1870 9 SI WA NOT_NAMED 1870-04-13 06:00:00 NR -10.9000 100.900 spur-merge 659 659 __________O___ -1 -10.9000 100.900 7 6 225
1870101S07468 1870 9 SI WA NOT_NAMED 1870-04-13 09:00:00 NR -11.0980 100.684 spur-merge 690 690 __________P___ -1 -11.0980 100.684 7 6 226
1870101S07468 1870 9 SI WA NOT_NAMED 1870-04-13 12:00:00 NR -11.2849 100.497 spur-merge 721 721 __________P___ -1 -11.2849 100.497 7 5 222
1870101S07468 1870 9 SI WA NOT_NAMED 1870-04-13 15:00:00 NR -11.4793 100.337 spur-merge 752 752 __________P___ -1 -11.4793 100.337 7 5 215
1870101S07468 1870 9 SI WA NOT_NAMED 1870-04-13 18:00:00 NR -11.7000 100.200 spur-merge 776 776 __________O___ -1 -11.7000 100.200 7 6 209
1870101S07468 1870 9 SI WA NOT_NAMED 1870-04-13 21:00:00 NR -11.9753 100.054 spur-merge 807 807 __________P___ -1 -11.9753 100.054 7 6 204
1870101S07468 1870 9 SI WA NOT_NAMED 1870-04-14 00:00:00 NR -12.2775 99.9327 spur-merge 847 847 __________P___ -1 -12.2775 99.9327 7 7 198
1870101S07468 1870 9 SI WA NOT_NAMED 1870-04-14 03:00:00 NR -12.5909 99.8448 spur-merge 878 878 __________P___ -1 -12.5909 99.8448 7 6 192
1870101S07468 1870 9 SI WA NOT_NAMED 1870-04-14 06:00:00 NR -12.9000 99.8000 spur-merge 903 903 __________O___ -1 -12.9000 99.8000 7 6 183
1870101S07468 1870 9 SI WA NOT_NAMED 1870-04-14 09:00:00 NR -13.1822 99.8027 spur-merge 929 929 __________P___ -1 -13.1822 99.8027 7 6 175
1870101S07468 1870 9 SI WA NOT_NAMED 1870-04-14 12:00:00 NR -13.4575 99.8473 spur-merge 955 948 __________P___ -1 -13.4575 99.8473 7 6 168
1870101S07468 1870 9 SI WA NOT_NAMED 1870-04-14 15:00:00 NR -13.7291 99.9183 spur-merge 966 966 __________P___ -1 -13.7291 99.9183 7 6 165
1870101S07468 1870 9 SI WA NOT_NAMED 1870-04-14 18:00:00 NR -14.0000 100.000 spur-merge 986 986 __________O___ -1 -14.0000 100.000 7 6 166
1870101S07468 1870 9 SI WA NOT_NAMED 1870-04-14 21:00:00 NR -14.2912 100.064 spur-merge 1008 1008 __________P___ -1 -14.2912 100.064 7 6 167
1870101S07468 1870 9 SI WA NOT_NAMED 1870-04-15 00:00:00 NR -14.5800 100.135 spur-merge 1036 1030 __________P___ -1 -14.5800 100.135 7 6 166
1870101S07468 1870 9 SI WA NOT_NAMED 1870-04-15 03:00:00 NR -14.8537 100.214 spur-merge 1058 1058 __________P___ -1 -14.8537 100.214 7 5 163
1870101S07468 1870 9 SI WA NOT_NAMED 1870-04-15 06:00:00 NR -15.1000 100.300 spur-merge 1072 1072 __________O___ -1 -15.1000 100.300 7 5 160
1870101S07468 1870 9 SI WA NOT_NAMED 1870-04-15 09:00:00 NR -15.3078 100.385 spur-merge 1086 1086 __________P___ -1 -15.3078 100.385 7 4 156
1870101S07468 1870 9 SI WA NOT_NAMED 1870-04-15 12:00:00 NR -15.4874 100.478 spur-merge 1100 1100 __________P___ -1 -15.4874 100.478 7 4 151
1870101S07468 1870 9 SI WA NOT_NAMED 1870-04-15 15:00:00 NR -15.6484 100.582 spur-merge 1105 1105 __________P___ -1 -15.6484 100.582 7 4 146
1870101S07468 1870 9 SI WA NOT_NAMED 1870-04-15 18:00:00 NR -15.8000 100.700 spur-merge 1120 1120 __________O___ -1 -15.8000 100.700 7 4 141
1870101S07468 1870 9 SI WA NOT_NAMED 1870-04-15 21:00:00 NR -15.9491 100.840 spur-merge 1126 1126 __________P___ -1 -15.9491 100.840 7 4 136
1870101S07468 1870 9 SI WA NOT_NAMED 1870-04-16 00:00:00 NR -16.0925 100.993 spur-merge 1137 1132 __________P___ -1 -16.0925 100.993 7 4 134
1870101S07468 1870 9 SI WA NOT_NAMED 1870-04-16 03:00:00 NR -16.2397 101.149 spur-merge 1141 1136 __________P___ -1 -16.2397 101.149 7 4 136
1870101S07468 1870 9 SI WA NOT_NAMED 1870-04-16 06:00:00 NR -16.4000 101.300 spur-merge 1150 1150 __________O___ -1 -16.4000 101.300 7 4 142
1870101S07468 1870 9 SI WA NOT_NAMED 1870-04-16 09:00:00 NR -16.5896 101.432 spur-merge 1164 1159 __________P___ -1 -16.5896 101.432 7 5 148
1870101S07468 1870 9 SI WA NOT_NAMED 1870-04-16 12:00:00 NR -16.7924 101.558 spur-merge 1174 1174 __________P___ -1 -16.7924 101.558 7 5 150
1870101S07468 1870 9 SI WA NOT_NAMED 1870-04-16 15:00:00 NR -16.9990 101.679 spur-merge 1190 1190 __________P___ -1 -16.9990 101.679 7 5 151
1870101S07468 1870 9 SI WA NOT_NAMED 1870-04-16 18:00:00 NR -17.2000 101.800 spur-merge 1205 1205 __________O___ -1 -17.2000 101.800 7 5 149
1870101S07468 1870 9 SI WA NOT_NAMED 1870-04-16 21:00:00 NR -17.3882 101.923 spur-merge 1221 1217 __________P___ -1 -17.3882 101.923 7 4 147
1870101S07468 1870 9 SI WA NOT_NAMED 1870-04-17 00:00:00 NR -17.5651 102.047 spur-merge 1237 1233 __________P___ -1 -17.5651 102.047 7 4 145
1870101S07468 1870 9 SI WA NOT_NAMED 1870-04-17 03:00:00 NR -17.7344 102.173 spur-merge 1239 1239 __________P___ -1 -17.7344 102.173 7 4 144
1870101S07468 1870 9 SI WA NOT_NAMED 1870-04-17 06:00:00 NR -17.9000 102.300 spur-merge 1256 __________O___ -1 -17.9000 102.300 7 4 144

About IBTrACS Database

This database is a web-friendly format of International Best Track Archive for Climate Stewardship (IBTrACS), a global best track data archive curated by NOAA dating back to 1842.

Updated: 2021-10-08